createdAt,value
2022-09-10T00:01:57.178Z,13.42
2022-09-10T00:06:58.882Z,13.42
2022-09-10T00:12:00.651Z,13.37
2022-09-10T00:17:02.219Z,13.49
2022-09-10T00:22:03.860Z,13.52
2022-09-10T00:27:05.426Z,13.55
2022-09-10T00:32:06.934Z,13.58
2022-09-10T00:37:08.885Z,13.58
2022-09-10T00:42:11.679Z,13.61
2022-09-10T00:47:22.017Z,13.76
2022-09-10T00:52:23.906Z,13.84
2022-09-10T00:57:28.071Z,13.86
2022-09-10T01:02:29.618Z,13.88
2022-09-10T01:07:33.109Z,13.92
2022-09-10T01:13:03.817Z,14.00
2022-09-10T01:18:50.814Z,14.06
2022-09-10T01:24:33.435Z,14.10
2022-09-10T01:29:55.515Z,14.11
2022-09-10T01:35:30.246Z,14.16
2022-09-10T01:40:34.191Z,14.19
2022-09-10T01:45:55.030Z,14.21
2022-09-10T01:51:10.542Z,14.20
2022-09-10T01:56:44.608Z,14.25
2022-09-10T02:01:52.543Z,14.21
2022-09-10T02:06:56.284Z,14.18
2022-09-10T02:11:58.451Z,14.19
2022-09-10T02:17:34.528Z,14.19
2022-09-10T02:22:39.849Z,14.20
2022-09-10T02:27:42.048Z,14.19
2022-09-10T02:32:44.582Z,14.19
2022-09-10T02:37:50.557Z,14.18
2022-09-10T02:42:52.051Z,14.18
2022-09-10T02:47:58.634Z,14.21
2022-09-10T02:53:01.356Z,14.21
2022-09-10T02:58:03.095Z,14.25
2022-09-10T03:03:04.773Z,14.24
2022-09-10T03:08:09.202Z,14.24
2022-09-10T03:13:12.832Z,14.20
2022-09-10T03:18:15.680Z,14.11
2022-09-10T03:23:19.464Z,14.13
2022-09-10T03:28:21.662Z,14.14
2022-09-10T03:33:23.820Z,14.12
2022-09-10T03:38:25.498Z,14.13
2022-09-10T03:43:27.652Z,14.13
2022-09-10T03:48:29.700Z,14.12
2022-09-10T03:53:31.436Z,14.15
2022-09-10T03:58:33.254Z,14.15
2022-09-10T04:03:34.886Z,14.11
2022-09-10T04:08:36.492Z,14.11
2022-09-10T04:13:41.217Z,14.12
2022-09-10T04:18:44.982Z,14.14
2022-09-10T04:23:54.000Z,14.16
2022-09-10T04:28:56.079Z,14.10
2022-09-10T04:34:00.144Z,14.09
2022-09-10T04:39:02.261Z,14.12
2022-09-10T04:44:06.479Z,14.13
2022-09-10T04:49:21.729Z,14.17
2022-09-10T04:54:23.304Z,14.20
2022-09-10T04:59:25.058Z,14.21
2022-09-10T05:04:26.699Z,14.28
2022-09-10T05:09:31.408Z,14.32
2022-09-10T05:14:35.981Z,14.28
2022-09-10T05:19:37.637Z,14.30
2022-09-10T05:24:44.197Z,14.33
2022-09-10T05:29:45.847Z,14.36
2022-09-10T05:34:50.615Z,14.35
2022-09-10T05:39:52.340Z,14.31
2022-09-10T05:44:54.337Z,14.34
2022-09-10T05:49:56.349Z,14.34
2022-09-10T05:54:59.295Z,14.37
2022-09-10T06:00:02.500Z,14.39
2022-09-10T06:05:20.147Z,14.46
2022-09-10T06:10:22.685Z,14.52
2022-09-10T06:15:26.293Z,14.53
2022-09-10T06:20:28.893Z,14.55
2022-09-10T06:25:31.202Z,14.59
2022-09-10T06:30:33.030Z,14.53
2022-09-10T06:35:35.478Z,14.51
2022-09-10T06:40:38.046Z,14.56
2022-09-10T06:45:40.279Z,14.58
2022-09-10T06:50:58.729Z,14.59
2022-09-10T06:56:15.169Z,14.64
2022-09-10T07:01:19.669Z,14.63
2022-09-10T07:06:35.822Z,14.60
2022-09-10T07:11:44.949Z,14.65
2022-09-10T07:16:50.228Z,14.83
2022-09-10T07:21:52.218Z,14.90
2022-09-10T07:26:54.005Z,14.97
2022-09-10T07:32:00.000Z,15.04
2022-09-10T07:37:01.899Z,15.17
2022-09-10T07:42:04.760Z,15.16
2022-09-10T07:47:10.597Z,15.18
2022-09-10T07:52:13.462Z,15.18
2022-09-10T07:57:23.989Z,15.09
2022-09-10T08:02:25.908Z,15.08
2022-09-10T08:07:33.220Z,15.05
2022-09-10T08:12:40.020Z,15.07
2022-09-10T08:17:42.502Z,15.01
2022-09-10T08:22:45.142Z,14.95
2022-09-10T08:27:46.875Z,14.94
2022-09-10T08:32:49.151Z,14.84
2022-09-10T08:37:54.573Z,14.85
2022-09-10T08:42:56.398Z,14.84
2022-09-10T08:48:06.685Z,14.83
2022-09-10T08:53:23.730Z,14.87
2022-09-10T08:58:40.027Z,14.82
2022-09-10T09:03:45.595Z,14.78
2022-09-10T09:08:49.598Z,14.83
2022-09-10T09:14:17.584Z,14.79
2022-09-10T09:19:34.292Z,14.73
2022-09-10T09:24:57.847Z,14.85
2022-09-10T09:30:04.027Z,14.90
2022-09-10T09:35:32.507Z,15.03
2022-09-10T09:40:59.105Z,15.11
2022-09-10T09:46:05.354Z,15.05
2022-09-10T09:51:13.494Z,15.07
2022-09-10T09:56:36.228Z,15.12
2022-09-10T10:01:42.854Z,15.18
2022-09-10T10:06:54.763Z,15.17
2022-09-10T10:12:07.222Z,15.31
2022-09-10T10:17:41.333Z,15.36
2022-09-10T10:22:45.921Z,15.32
2022-09-10T10:27:51.295Z,15.52
2022-09-10T10:32:56.538Z,15.40
2022-09-10T10:38:05.539Z,15.41
2022-09-10T10:43:41.715Z,15.48
2022-09-10T10:49:06.034Z,15.75
2022-09-10T10:54:49.497Z,16.02
2022-09-10T11:00:09.386Z,16.39
2022-09-10T11:05:31.583Z,16.75
2022-09-10T11:10:47.745Z,16.86
2022-09-10T11:16:04.331Z,16.49
2022-09-10T11:21:49.667Z,16.77
2022-09-10T11:26:54.957Z,16.67
2022-09-10T11:32:06.690Z,17.03
2022-09-10T11:37:21.208Z,18.20
2022-09-10T11:42:45.701Z,17.92
2022-09-10T11:48:30.253Z,17.11
2022-09-10T11:53:32.726Z,16.75
2022-09-10T11:58:43.991Z,16.40
2022-09-10T12:03:57.773Z,16.51
2022-09-10T12:09:14.774Z,16.60
2022-09-10T12:14:19.816Z,16.79
2022-09-10T12:19:29.304Z,17.01
2022-09-10T12:24:37.753Z,17.36
2022-09-10T12:29:40.832Z,17.51
2022-09-10T12:34:42.389Z,16.99
2022-09-10T12:39:45.071Z,16.80
2022-09-10T12:44:47.312Z,16.98
2022-09-10T12:49:57.189Z,17.60
2022-09-10T12:55:21.747Z,18.23
2022-09-10T13:00:47.252Z,18.47
2022-09-10T13:05:51.592Z,18.68
2022-09-10T13:10:59.646Z,18.50
2022-09-10T13:16:03.548Z,18.69
2022-09-10T13:21:23.355Z,18.77
2022-09-10T13:26:38.841Z,19.62
2022-09-10T13:31:44.823Z,19.56
2022-09-10T13:37:18.867Z,18.88
2022-09-10T13:42:49.684Z,18.72
2022-09-10T13:48:01.833Z,18.29
2022-09-10T13:53:09.262Z,18.05
2022-09-10T13:58:21.215Z,18.11
2022-09-10T14:03:25.949Z,18.13
2022-09-10T14:08:42.223Z,17.94
2022-09-10T14:14:02.899Z,17.75
2022-09-10T14:19:14.978Z,17.77
2022-09-10T14:24:45.660Z,17.70
2022-09-10T14:29:47.226Z,17.57
2022-09-10T14:34:48.960Z,17.58
2022-09-10T14:39:51.711Z,17.75
2022-09-10T14:44:54.357Z,18.01
2022-09-10T14:50:32.587Z,17.95
2022-09-10T14:55:34.132Z,18.21
2022-09-10T15:00:35.835Z,18.61
2022-09-10T15:05:38.149Z,18.88
2022-09-10T15:10:39.657Z,19.31
2022-09-10T15:15:41.153Z,19.60
2022-09-10T15:20:43.062Z,19.39
2022-09-10T15:25:50.558Z,19.65
2022-09-10T15:30:52.722Z,19.59
2022-09-10T15:35:54.229Z,19.47
2022-09-10T15:41:07.470Z,19.31
2022-09-10T15:46:10.559Z,19.34
2022-09-10T15:51:17.049Z,18.95
2022-09-10T15:56:20.115Z,18.92
2022-09-10T16:01:25.090Z,18.93
2022-09-10T16:06:27.723Z,18.82
2022-09-10T16:11:31.374Z,18.62
2022-09-10T16:16:34.593Z,18.62
2022-09-10T16:21:37.785Z,18.67
2022-09-10T16:26:41.369Z,18.62
2022-09-10T16:31:45.627Z,18.64
2022-09-10T16:36:51.388Z,18.55
2022-09-10T16:41:52.942Z,18.47
2022-09-10T16:46:55.575Z,18.44
2022-09-10T16:51:57.112Z,18.28
2022-09-10T16:56:59.789Z,18.19
2022-09-10T17:02:01.319Z,18.05
2022-09-10T17:07:03.029Z,18.00
2022-09-10T17:12:04.954Z,17.98
2022-09-10T17:17:06.467Z,17.90
2022-09-10T17:22:07.995Z,17.86
2022-09-10T17:27:11.411Z,17.65
2022-09-10T17:32:12.927Z,17.57
2022-09-10T17:37:15.404Z,17.40
2022-09-10T17:42:17.562Z,17.36
2022-09-10T17:47:19.071Z,17.28
2022-09-10T17:52:21.314Z,17.17
2022-09-10T17:57:22.781Z,17.13
2022-09-10T18:02:24.287Z,17.07
2022-09-10T18:07:25.962Z,17.03
2022-09-10T18:12:27.527Z,16.98
2022-09-10T18:17:29.029Z,16.83
2022-09-10T18:22:30.522Z,16.70
2022-09-10T18:27:32.017Z,16.56
2022-09-10T18:32:34.225Z,16.55
2022-09-10T18:37:35.932Z,16.41
2022-09-10T18:42:38.178Z,16.39
2022-09-10T18:47:44.951Z,16.43
2022-09-10T18:52:46.917Z,16.34
2022-09-10T18:57:48.475Z,16.36
2022-09-10T19:02:50.285Z,16.41
2022-09-10T19:07:51.968Z,16.47
2022-09-10T19:12:53.527Z,16.52
2022-09-10T19:17:55.244Z,16.58
2022-09-10T19:22:56.909Z,16.54
2022-09-10T19:27:58.498Z,16.54
2022-09-10T19:33:00.015Z,16.54
2022-09-10T19:38:15.759Z,16.50
2022-09-10T19:43:23.397Z,16.49
2022-09-10T19:48:24.953Z,16.52
2022-09-10T19:53:27.054Z,16.55
2022-09-10T19:58:28.548Z,16.54
2022-09-10T20:03:30.114Z,16.54
2022-09-10T20:08:34.005Z,16.46
2022-09-10T20:13:36.674Z,16.43
2022-09-10T20:18:38.444Z,16.39
2022-09-10T20:23:45.708Z,16.34
2022-09-10T20:28:53.376Z,16.29
2022-09-10T20:33:57.512Z,16.27
2022-09-10T20:38:59.087Z,16.24
2022-09-10T20:44:02.015Z,16.20
2022-09-10T20:49:03.579Z,16.09
2022-09-10T20:54:07.354Z,16.00
2022-09-10T20:59:16.241Z,15.84
2022-09-10T21:04:21.926Z,15.78
2022-09-10T21:09:25.476Z,15.66
2022-09-10T21:14:27.601Z,15.61
2022-09-10T21:19:35.130Z,15.56
2022-09-10T21:24:39.678Z,15.51
2022-09-10T21:29:41.167Z,15.49
2022-09-10T21:34:42.784Z,15.34
2022-09-10T21:39:44.301Z,15.33
2022-09-10T21:45:11.290Z,15.21
2022-09-10T21:50:14.975Z,15.15
2022-09-10T21:55:16.437Z,15.10
2022-09-10T22:00:19.078Z,14.99
2022-09-10T22:05:21.622Z,14.67
2022-09-10T22:10:23.240Z,14.47
2022-09-10T22:15:25.066Z,14.35
2022-09-10T22:20:26.530Z,14.25
2022-09-10T22:25:28.395Z,14.19
2022-09-10T22:30:29.990Z,14.04
2022-09-10T22:35:31.521Z,13.92
2022-09-10T22:40:33.502Z,13.88
2022-09-10T22:45:35.029Z,13.96
2022-09-10T22:50:36.672Z,13.60
2022-09-10T22:55:38.153Z,13.48
2022-09-10T23:00:39.713Z,13.46
2022-09-10T23:05:41.737Z,13.33
2022-09-10T23:10:44.576Z,13.40
2022-09-10T23:15:46.315Z,13.57
2022-09-10T23:20:47.868Z,13.40
2022-09-10T23:25:49.771Z,13.31
2022-09-10T23:30:52.217Z,13.40
2022-09-10T23:35:53.941Z,13.28
2022-09-10T23:40:56.089Z,13.20
2022-09-10T23:45:59.026Z,13.02
2022-09-10T23:51:04.140Z,13.12
2022-09-10T23:56:06.117Z,13.07
